This is the latest recevied weather packets stored in our database for station/object W1HVD. If no packets are shown the sender has not sent any weather packets the latest 10 day(s).
| Time | Temp. | Humidity | Pressure | Rain* | Wind** | Luminosity | Snow |
|---|---|---|---|---|---|---|---|
| 1778355815 | 16.11° C | 73% | 1012.4 hPa | 0 mm | - | 145 W/m² | - |
| 1778355513 | 16.11° C | 71% | 1012.3 hPa | 0 mm | - | 128 W/m² | - |
| 1778355213 | 16.11° C | 70% | 1012.6 hPa | 0 mm | - | 156 W/m² | - |
| 1778354909 | 16.11° C | 68% | 1012.4 hPa | 0 mm | - | 119 W/m² | - |
| 1778354605 | 16.11° C | 67% | 1012.3 hPa | 0 mm | - | 153 W/m² | - |
| 1778354300 | 16.11° C | 67% | 1012.4 hPa | 0 mm | - | 155 W/m² | - |
| 1778353996 | 16.67° C | 66% | 1012.5 hPa | 0 mm | - | 154 W/m² | - |
| 1778353692 | 16.67° C | 66% | 1012.3 hPa | 0 mm | - | 185 W/m² | - |
| 1778353390 | 16.67° C | 68% | 1012.3 hPa | 0 mm | - | 201 W/m² | - |
| 1778353087 | 16.67° C | 68% | 1012.4 hPa | 0 mm | - | 207 W/m² | - |
| 1778352783 | 17.22° C | 69% | 1012.4 hPa | 0 mm | - | 119 W/m² | - |
| 1778352480 | 16.67° C | 68% | 1012.6 hPa | 0 mm | - | 246 W/m² | - |
| 1778352178 | 16.67° C | 68% | 1012.5 hPa | 0 mm | - | 232 W/m² | - |
| 1778351874 | 17.22° C | 68% | 1012.6 hPa | 0 mm | - | 180 W/m² | - |
| 1778351570 | 17.22° C | 67% | 1012.6 hPa | 0 mm | - | 286 W/m² | - |
| 1778351265 | 17.22° C | 67% | 1012.4 hPa | 0 mm | - | 425 W/m² | - |
| 1778350963 | 17.78° C | 67% | 1012.5 hPa | 0 mm | - | 314 W/m² | - |
| 1778350660 | 16.67° C | 70% | 1012.8 hPa | 0 mm | - | 416 W/m² | - |
| 1778350357 | 16.67° C | 69% | 1012.6 hPa | 0 mm | - | 404 W/m² | - |
| 1778350055 | 15.56° C | 72% | 1012.7 hPa | 0 mm | - | 364 W/m² | - |
| 1778349751 | 15.56° C | 74% | 1012.8 hPa | 0 mm | - | 277 W/m² | - |
| 1778349447 | 15° C | 75% | 1012.8 hPa | 0 mm | - | 196 W/m² | - |
| 1778349143 | 15° C | 76% | 1012.8 hPa | 0 mm | - | 173 W/m² | - |
| 1778348840 | 15° C | 76% | 1012.8 hPa | 0 mm | - | 211 W/m² | - |
| 1778348535 | 14.44° C | 78% | 1013 hPa | 0 mm | - | 203 W/m² | - |
* Rain latest hour (hover to see other rain measurements)
** Current wind speed in m/s (hover to see current wind gust speed)